createdAt,value
2019-01-11T00:00:04.384Z,5.77
2019-01-11T00:02:33.181Z,6.40
2019-01-11T00:05:01.832Z,7.10
2019-01-11T00:07:30.528Z,6.67
2019-01-11T00:09:58.927Z,7.57
2019-01-11T00:12:27.577Z,6.20
2019-01-11T00:14:56.070Z,7.13
2019-01-11T00:17:24.725Z,6.47
2019-01-11T00:19:53.124Z,6.77
2019-01-11T00:22:21.556Z,7.47
2019-01-11T00:24:50.286Z,7.40
2019-01-11T00:27:18.869Z,6.87
2019-01-11T00:29:47.336Z,5.93
2019-01-11T00:32:16.908Z,7.13
2019-01-11T00:34:45.358Z,7.63
2019-01-11T00:37:14.316Z,8.57
2019-01-11T00:39:42.760Z,8.37
2019-01-11T00:42:11.472Z,10.07
2019-01-11T00:44:39.880Z,10.00
2019-01-11T00:47:08.277Z,10.80
2019-01-11T00:49:36.697Z,11.67
2019-01-11T00:52:05.505Z,11.00
2019-01-11T00:54:33.913Z,10.67
2019-01-11T00:57:02.320Z,10.60
2019-01-11T00:59:31.005Z,11.13
2019-01-11T01:01:59.737Z,11.00
2019-01-11T01:04:28.366Z,10.70
2019-01-11T01:06:56.795Z,11.73
2019-01-11T01:09:25.751Z,11.13
2019-01-11T01:11:54.396Z,12.97
2019-01-11T01:14:23.317Z,11.87
2019-01-11T01:16:51.717Z,11.40
2019-01-11T01:19:20.204Z,12.10
2019-01-11T01:21:49.154Z,12.43
2019-01-11T01:24:17.554Z,12.70
2019-01-11T01:26:45.951Z,12.80
2019-01-11T01:29:14.371Z,13.73
2019-01-11T01:31:43.127Z,13.37
2019-01-11T01:34:11.532Z,13.23
2019-01-11T01:36:40.241Z,14.07
2019-01-11T01:39:09.184Z,14.83
2019-01-11T01:41:37.657Z,15.17
2019-01-11T01:44:06.123Z,14.57
2019-01-11T01:46:34.600Z,14.87
2019-01-11T01:49:03.318Z,16.23
2019-01-11T01:51:32.308Z,13.77
2019-01-11T01:54:00.735Z,14.93
2019-01-11T01:56:29.395Z,14.63
2019-01-11T01:58:58.077Z,15.10
2019-01-11T02:01:26.480Z,15.50
2019-01-11T02:03:55.147Z,14.67
2019-01-11T02:06:23.597Z,13.47
2019-01-11T02:08:52.233Z,15.80
2019-01-11T02:11:20.687Z,14.83
2019-01-11T02:13:49.370Z,14.97
2019-01-11T02:16:17.833Z,15.40
2019-01-11T02:18:46.238Z,15.20
2019-01-11T02:21:14.665Z,14.30
2019-01-11T02:23:43.057Z,16.37
2019-01-11T02:26:11.691Z,18.07
2019-01-11T02:28:40.445Z,15.23
2019-01-11T02:31:08.872Z,16.90
2019-01-11T02:33:37.260Z,15.77
2019-01-11T02:36:06.011Z,16.23
2019-01-11T02:38:34.405Z,16.80
2019-01-11T02:41:03.022Z,15.87
2019-01-11T02:43:31.462Z,17.63
2019-01-11T02:45:59.859Z,16.00
2019-01-11T02:48:28.250Z,16.07
2019-01-11T02:50:56.760Z,15.27
2019-01-11T02:53:25.430Z,15.93
2019-01-11T02:55:53.823Z,16.30
2019-01-11T02:58:22.505Z,16.60
2019-01-11T03:00:51.160Z,15.80
2019-01-11T03:03:19.865Z,16.90
2019-01-11T03:05:48.562Z,18.67
2019-01-11T03:08:16.946Z,17.07
2019-01-11T03:10:45.651Z,17.07
2019-01-11T03:13:14.592Z,16.40
2019-01-11T03:15:42.985Z,16.30
2019-01-11T03:18:11.385Z,17.23
2019-01-11T03:20:39.818Z,16.33
2019-01-11T03:23:08.223Z,15.17
2019-01-11T03:25:36.693Z,16.73
2019-01-11T03:28:05.413Z,17.60
2019-01-11T03:30:33.833Z,16.90
2019-01-11T03:33:02.496Z,15.10
2019-01-11T03:35:31.217Z,17.00
2019-01-11T03:37:59.619Z,17.73
2019-01-11T03:40:28.008Z,19.80
2019-01-11T03:42:56.673Z,17.07
2019-01-11T03:45:25.249Z,16.37
2019-01-11T03:47:53.948Z,16.67
2019-01-11T03:50:23.281Z,17.00
2019-01-11T03:52:52.045Z,18.63
2019-01-11T03:55:20.972Z,18.33
2019-01-11T03:57:49.566Z,18.57
2019-01-11T04:00:20.420Z,16.87
2019-01-11T04:02:49.289Z,18.57
2019-01-11T04:05:17.789Z,18.17
2019-01-11T04:07:46.586Z,19.87
2019-01-11T04:10:20.670Z,16.90
2019-01-11T04:12:49.221Z,18.47
2019-01-11T04:15:21.343Z,17.50
2019-01-11T04:18:08.287Z,17.20
2019-01-11T04:20:37.292Z,17.57
2019-01-11T04:23:05.829Z,17.87
2019-01-11T04:25:35.881Z,17.03
2019-01-11T04:28:05.487Z,17.70
2019-01-11T04:30:33.888Z,17.93
2019-01-11T04:33:02.395Z,19.00
2019-01-11T04:35:31.032Z,17.30
2019-01-11T04:37:59.666Z,18.63
2019-01-11T04:40:34.137Z,17.23
2019-01-11T04:42:58.244Z,17.00
2019-01-11T04:45:26.658Z,19.73
2019-01-11T04:47:55.340Z,17.33
2019-01-11T04:50:24.094Z,19.03
2019-01-11T04:52:52.724Z,17.30
2019-01-11T04:55:21.179Z,18.73
2019-01-11T04:57:49.838Z,19.33
2019-01-11T05:00:21.950Z,18.63
2019-01-11T05:02:50.620Z,18.23
2019-01-11T05:05:19.390Z,19.67
2019-01-11T05:07:48.162Z,17.60
2019-01-11T05:10:18.742Z,21.33
2019-01-11T05:12:47.374Z,18.90
2019-01-11T05:15:16.011Z,18.27
2019-01-11T05:17:44.683Z,17.53
2019-01-11T05:20:16.782Z,19.90
2019-01-11T05:22:44.905Z,20.27
2019-01-11T05:25:13.645Z,22.30
2019-01-11T05:27:42.393Z,20.97
2019-01-11T05:30:15.821Z,22.03
2019-01-11T05:32:44.270Z,22.20
2019-01-11T05:35:12.824Z,20.40
2019-01-11T05:37:41.231Z,21.00
2019-01-11T05:40:15.114Z,23.50
2019-01-11T05:42:43.581Z,21.90
2019-01-11T05:45:12.220Z,21.10
2019-01-11T05:47:40.885Z,21.70
2019-01-11T05:50:12.874Z,21.30
2019-01-11T05:52:41.503Z,19.30
2019-01-11T05:55:11.758Z,22.73
2019-01-11T05:57:41.781Z,21.70
2019-01-11T06:00:11.790Z,22.67
2019-01-11T06:02:40.633Z,21.67
2019-01-11T06:05:11.157Z,23.80
2019-01-11T06:07:41.637Z,22.20
2019-01-11T06:10:13.527Z,21.30
2019-01-11T06:12:42.268Z,23.00
2019-01-11T06:15:11.429Z,24.63
2019-01-11T06:17:40.162Z,24.60
2019-01-11T06:20:11.921Z,26.10
2019-01-11T06:22:40.539Z,24.53
2019-01-11T06:25:09.155Z,22.17
2019-01-11T06:27:38.704Z,28.47
2019-01-11T06:30:10.872Z,23.53
2019-01-11T06:32:39.648Z,20.17
2019-01-11T06:35:08.458Z,21.27
2019-01-11T06:37:36.890Z,22.10
2019-01-11T06:40:08.981Z,23.20
2019-01-11T06:42:38.291Z,22.10
2019-01-11T06:45:11.411Z,21.87
2019-01-11T06:47:40.142Z,21.47
2019-01-11T06:50:13.912Z,21.50
2019-01-11T06:52:42.417Z,20.03
2019-01-11T06:55:12.164Z,21.43
2019-01-11T06:57:40.704Z,19.63
2019-01-11T07:00:12.322Z,20.77
2019-01-11T07:02:41.267Z,19.50
2019-01-11T07:05:11.189Z,19.20
2019-01-11T07:07:39.687Z,19.93
2019-01-11T07:10:11.200Z,20.20
2019-01-11T07:12:39.673Z,19.33
2019-01-11T07:15:10.153Z,21.63
2019-01-11T07:17:38.839Z,20.27
2019-01-11T07:20:10.600Z,19.67
2019-01-11T07:22:39.291Z,21.00
2019-01-11T07:25:10.367Z,19.30
2019-01-11T07:27:52.723Z,20.30
2019-01-11T07:30:22.202Z,18.90
2019-01-11T07:32:50.899Z,18.77
2019-01-11T07:35:19.317Z,18.87
2019-01-11T07:37:47.825Z,19.60
2019-01-11T07:40:16.241Z,19.30
2019-01-11T07:42:44.657Z,20.30
2019-01-11T07:45:14.173Z,19.40
2019-01-11T07:47:42.812Z,18.23
2019-01-11T07:50:11.720Z,18.93
2019-01-11T07:52:40.371Z,18.57
2019-01-11T07:55:10.421Z,18.07
2019-01-11T07:57:39.066Z,19.43
2019-01-11T08:00:13.964Z,18.70
2019-01-11T08:02:42.380Z,18.67
2019-01-11T08:05:11.102Z,17.27
2019-01-11T08:07:39.568Z,17.30
2019-01-11T08:10:10.326Z,19.37
2019-01-11T08:12:39.069Z,17.67
2019-01-11T08:15:13.523Z,17.33
2019-01-11T08:17:41.977Z,17.13
2019-01-11T08:20:10.847Z,15.37
2019-01-11T08:22:43.540Z,15.90
2019-01-11T08:25:13.861Z,15.83
2019-01-11T08:27:44.046Z,16.87
2019-01-11T08:30:17.067Z,15.17
2019-01-11T08:32:45.824Z,16.10
2019-01-11T08:35:15.202Z,16.23
2019-01-11T08:37:44.268Z,17.20
2019-01-11T08:40:13.970Z,15.90
2019-01-11T08:42:42.640Z,15.47
2019-01-11T08:45:13.400Z,14.20
2019-01-11T08:47:41.877Z,15.70
2019-01-11T08:50:21.281Z,14.80
2019-01-11T08:52:50.016Z,14.27
2019-01-11T08:55:18.790Z,15.10
2019-01-11T08:57:47.745Z,15.20
2019-01-11T09:00:16.901Z,14.53
2019-01-11T09:02:45.554Z,17.97
2019-01-11T09:05:15.566Z,15.07
2019-01-11T09:07:44.341Z,13.90
2019-01-11T09:10:22.618Z,15.17
2019-01-11T09:12:49.033Z,16.27
2019-01-11T09:15:18.627Z,14.90
2019-01-11T09:17:49.068Z,14.00
2019-01-11T09:20:17.509Z,14.60
2019-01-11T09:22:46.153Z,15.23
2019-01-11T09:25:14.792Z,13.10
2019-01-11T09:27:43.747Z,12.60
2019-01-11T09:30:12.477Z,15.13
2019-01-11T09:32:41.301Z,13.03
2019-01-11T09:35:09.741Z,12.87
2019-01-11T09:37:38.155Z,12.37
2019-01-11T09:40:08.817Z,13.00
2019-01-11T09:42:37.272Z,14.17
2019-01-11T09:45:07.651Z,13.53
2019-01-11T09:47:36.329Z,11.60
2019-01-11T09:50:08.536Z,11.90
2019-01-11T09:52:36.961Z,12.30
2019-01-11T09:55:06.669Z,13.60
2019-01-11T09:57:35.950Z,14.30
2019-01-11T10:00:10.232Z,13.03
2019-01-11T10:02:39.930Z,13.80
2019-01-11T10:05:09.236Z,13.80
2019-01-11T10:07:39.038Z,14.07
2019-01-11T10:10:11.243Z,13.83
2019-01-11T10:12:39.993Z,13.40
2019-01-11T10:15:11.506Z,13.70
2019-01-11T10:17:40.022Z,12.93
2019-01-11T10:20:13.871Z,14.07
2019-01-11T10:22:42.635Z,13.23
2019-01-11T10:25:13.134Z,12.77
2019-01-11T10:27:41.785Z,12.53
2019-01-11T10:30:16.064Z,13.37
2019-01-11T10:32:45.231Z,12.30
2019-01-11T10:35:13.984Z,14.17
2019-01-11T10:37:42.565Z,12.03
2019-01-11T10:40:14.075Z,12.03
2019-01-11T10:42:43.072Z,12.73
2019-01-11T10:45:17.047Z,11.70
2019-01-11T10:47:45.692Z,13.50
2019-01-11T10:50:16.929Z,12.00
2019-01-11T10:52:45.807Z,14.00
2019-01-11T10:55:16.245Z,13.67
2019-01-11T10:57:45.189Z,14.00
2019-01-11T11:00:16.942Z,12.57
2019-01-11T11:02:47.541Z,13.27
2019-01-11T11:05:16.107Z,14.27
2019-01-11T11:07:44.774Z,14.03
2019-01-11T11:10:14.717Z,13.80
2019-01-11T11:12:43.147Z,13.10
2019-01-11T11:15:14.039Z,12.37
2019-01-11T11:17:42.693Z,14.00
2019-01-11T11:20:13.531Z,13.13
2019-01-11T11:22:42.997Z,13.37
2019-01-11T11:25:14.052Z,18.80
2019-01-11T11:27:42.480Z,16.50
2019-01-11T11:30:13.351Z,13.70
2019-01-11T11:32:46.915Z,14.57
2019-01-11T11:35:15.771Z,15.27
2019-01-11T11:37:44.727Z,13.03
2019-01-11T11:40:13.553Z,13.70
2019-01-11T11:42:42.200Z,13.83
2019-01-11T11:45:11.165Z,13.87
2019-01-11T11:47:39.658Z,14.37
2019-01-11T11:50:10.259Z,12.80
2019-01-11T11:52:38.770Z,13.10
2019-01-11T11:55:08.801Z,14.10
2019-01-11T11:57:37.453Z,13.80
2019-01-11T12:00:11.833Z,12.97
2019-01-11T12:02:40.296Z,13.33
2019-01-11T12:05:09.019Z,12.50
2019-01-11T12:07:37.466Z,13.60
2019-01-11T12:10:08.760Z,13.70
2019-01-11T12:12:37.186Z,11.57
2019-01-11T12:15:06.381Z,12.73
2019-01-11T12:17:36.065Z,12.83
2019-01-11T12:20:10.547Z,13.63
2019-01-11T12:22:39.927Z,13.37
2019-01-11T12:25:08.597Z,12.13
2019-01-11T12:27:37.319Z,13.30
2019-01-11T12:30:12.065Z,13.90
2019-01-11T12:32:40.468Z,12.20
2019-01-11T12:35:10.512Z,12.80
2019-01-11T12:37:38.925Z,11.87
2019-01-11T12:40:10.269Z,13.63
2019-01-11T12:42:38.726Z,13.13
2019-01-11T12:45:09.818Z,11.70
2019-01-11T12:47:38.289Z,13.07
2019-01-11T12:50:15.565Z,12.27
2019-01-11T12:52:44.229Z,13.20
2019-01-11T12:55:12.938Z,12.30
2019-01-11T12:57:41.878Z,11.30
2019-01-11T13:00:13.102Z,12.17
2019-01-11T13:02:41.813Z,10.03
2019-01-11T13:05:13.427Z,11.77
2019-01-11T13:07:41.853Z,12.03
2019-01-11T13:10:13.362Z,12.03
2019-01-11T13:12:42.104Z,10.07
2019-01-11T13:15:13.997Z,10.80
2019-01-11T13:17:43.153Z,10.57
2019-01-11T13:20:14.232Z,10.67
2019-01-11T13:22:43.013Z,11.23
2019-01-11T13:25:11.478Z,11.03
2019-01-11T13:27:39.989Z,11.27
2019-01-11T13:30:11.567Z,12.47
2019-01-11T13:32:40.138Z,10.70
2019-01-11T13:35:08.933Z,10.17
2019-01-11T13:37:37.341Z,10.40
2019-01-11T13:40:11.412Z,10.57
2019-01-11T13:42:39.887Z,11.77
2019-01-11T13:45:09.060Z,10.43
2019-01-11T13:47:37.479Z,10.90
2019-01-11T13:50:09.084Z,10.40
2019-01-11T13:52:37.741Z,12.00
2019-01-11T13:55:06.257Z,10.23
2019-01-11T13:57:34.749Z,10.33
2019-01-11T14:00:04.667Z,10.73
2019-01-11T14:02:33.353Z,10.20
2019-01-11T14:05:01.826Z,10.60
2019-01-11T14:07:30.754Z,9.97
2019-01-11T14:09:59.216Z,10.67
2019-01-11T14:12:27.664Z,8.97
2019-01-11T14:14:56.061Z,11.07
2019-01-11T14:17:24.700Z,10.33
2019-01-11T14:19:53.167Z,10.20
2019-01-11T14:22:21.816Z,8.97
2019-01-11T14:24:50.210Z,9.70
2019-01-11T14:27:18.666Z,10.70
2019-01-11T14:29:47.527Z,9.57
2019-01-11T14:32:16.021Z,10.30
2019-01-11T14:34:44.906Z,10.77
2019-01-11T14:37:13.396Z,10.10
2019-01-11T14:39:42.048Z,9.33
2019-01-11T14:42:10.885Z,10.90
2019-01-11T14:44:39.301Z,10.57
2019-01-11T14:47:08.011Z,11.43
2019-01-11T14:49:36.557Z,10.10
2019-01-11T14:52:05.055Z,10.20
2019-01-11T14:54:33.776Z,11.87
2019-01-11T14:57:02.492Z,10.50
2019-01-11T14:59:32.140Z,11.00
2019-01-11T15:02:00.787Z,9.97
2019-01-11T15:04:29.513Z,9.93
2019-01-11T15:06:58.202Z,11.50
2019-01-11T15:09:26.604Z,10.53
2019-01-11T15:11:55.374Z,11.17
2019-01-11T15:14:24.072Z,11.07
2019-01-11T15:16:52.494Z,9.60
2019-01-11T15:19:21.030Z,9.83
2019-01-11T15:21:49.698Z,10.30
2019-01-11T15:24:18.363Z,10.43
2019-01-11T15:26:47.083Z,9.60
2019-01-11T15:29:16.084Z,8.93
2019-01-11T15:31:44.782Z,11.30
2019-01-11T15:34:13.624Z,10.40
2019-01-11T15:36:42.153Z,11.50
2019-01-11T15:39:10.747Z,9.53
2019-01-11T15:41:39.433Z,10.17
2019-01-11T15:44:08.503Z,12.87
2019-01-11T15:46:37.299Z,10.80
2019-01-11T15:49:05.889Z,10.53
2019-01-11T15:51:34.669Z,10.40
2019-01-11T15:54:03.223Z,11.10
2019-01-11T15:56:32.160Z,11.33
2019-01-11T15:59:00.686Z,9.37
2019-01-11T16:01:29.301Z,10.50
2019-01-11T16:03:57.806Z,9.27
2019-01-11T16:06:28.229Z,9.57
2019-01-11T16:09:17.571Z,9.93
2019-01-11T16:12:06.601Z,9.13
2019-01-11T16:14:41.683Z,10.23
2019-01-11T16:17:22.161Z,9.77
2019-01-11T16:19:50.926Z,9.10
2019-01-11T16:22:19.514Z,9.60
2019-01-11T16:24:48.202Z,9.77
2019-01-11T16:27:16.713Z,10.47
2019-01-11T16:29:45.463Z,10.87
2019-01-11T16:32:13.877Z,10.50
2019-01-11T16:34:42.772Z,11.20
2019-01-11T16:37:11.232Z,10.27
2019-01-11T16:39:39.652Z,11.77
2019-01-11T16:42:08.433Z,10.50
2019-01-11T16:44:36.908Z,11.33
2019-01-11T16:47:05.848Z,10.83
2019-01-11T16:49:35.315Z,12.20
2019-01-11T16:52:04.145Z,11.80
2019-01-11T16:54:32.597Z,12.47
2019-01-11T16:57:01.108Z,10.60
2019-01-11T16:59:29.884Z,13.47
2019-01-11T17:01:58.323Z,11.93
2019-01-11T17:04:26.908Z,11.63
2019-01-11T17:06:55.804Z,10.77
2019-01-11T17:09:24.643Z,11.17
2019-01-11T17:11:53.235Z,12.93
2019-01-11T17:14:21.935Z,11.90
2019-01-11T17:16:50.396Z,12.10
2019-01-11T17:19:19.191Z,12.23
2019-01-11T17:21:47.717Z,12.40
2019-01-11T17:24:16.162Z,11.77
2019-01-11T17:26:44.681Z,11.17
2019-01-11T17:29:13.451Z,11.30
2019-01-11T17:31:42.157Z,12.23
2019-01-11T17:34:12.033Z,13.00
2019-01-11T17:36:41.464Z,10.93
2019-01-11T17:39:11.059Z,10.20
2019-01-11T17:41:40.497Z,10.40
2019-01-11T17:44:10.256Z,10.57
2019-01-11T17:46:39.645Z,11.37
2019-01-11T17:49:10.385Z,10.23
2019-01-11T17:51:40.075Z,10.67
2019-01-11T17:54:09.862Z,11.10
2019-01-11T17:56:41.440Z,10.90
2019-01-11T17:59:13.457Z,10.80
2019-01-11T18:01:42.576Z,9.73
2019-01-11T18:04:11.480Z,10.37
2019-01-11T18:06:39.901Z,10.27
2019-01-11T18:09:08.624Z,9.00
2019-01-11T18:11:37.409Z,8.90
2019-01-11T18:14:05.880Z,9.50
2019-01-11T18:16:34.558Z,10.13
2019-01-11T18:19:05.010Z,11.00
2019-01-11T18:21:35.112Z,8.87
2019-01-11T18:24:05.021Z,10.10
2019-01-11T18:26:34.251Z,10.60
2019-01-11T18:29:03.996Z,10.17
2019-01-11T18:31:32.555Z,9.93
2019-01-11T18:34:01.394Z,9.50
2019-01-11T18:36:30.068Z,11.00
2019-01-11T18:38:58.752Z,9.00
2019-01-11T18:41:28.392Z,10.33
2019-01-11T18:43:56.977Z,9.10
2019-01-11T18:46:25.729Z,9.17
2019-01-11T18:48:54.501Z,8.77
2019-01-11T18:51:23.193Z,9.07
2019-01-11T18:53:52.620Z,7.60
2019-01-11T18:56:21.408Z,8.23
2019-01-11T18:58:49.856Z,8.97
2019-01-11T19:01:18.275Z,8.17
2019-01-11T19:03:46.757Z,9.30
2019-01-11T19:06:15.262Z,8.03
2019-01-11T19:08:44.100Z,8.00
2019-01-11T19:11:12.811Z,8.67
2019-01-11T19:13:41.249Z,8.57
2019-01-11T19:16:10.719Z,9.30
2019-01-11T19:18:39.787Z,8.80
2019-01-11T19:21:08.486Z,8.80
2019-01-11T19:23:37.221Z,8.60
2019-01-11T19:26:05.701Z,8.93
2019-01-11T19:28:35.368Z,7.70
2019-01-11T19:31:04.085Z,8.30
2019-01-11T19:33:32.629Z,7.80
2019-01-11T19:36:01.722Z,7.90
2019-01-11T19:38:30.188Z,8.63
2019-01-11T19:40:58.884Z,7.60
2019-01-11T19:43:27.323Z,7.40
2019-01-11T19:45:55.791Z,6.90
2019-01-11T19:48:24.314Z,7.23
2019-01-11T19:50:53.023Z,6.13
2019-01-11T19:53:27.557Z,5.60
2019-01-11T19:55:58.548Z,6.50
2019-01-11T19:58:22.284Z,6.23
2019-01-11T20:00:50.744Z,6.23
2019-01-11T20:03:19.606Z,5.93
2019-01-11T20:05:48.380Z,7.43
2019-01-11T20:08:16.941Z,6.23
2019-01-11T20:10:45.529Z,5.80
2019-01-11T20:13:14.402Z,5.93
2019-01-11T20:15:43.238Z,6.70
2019-01-11T20:18:11.812Z,5.53
2019-01-11T20:20:40.381Z,7.03
2019-01-11T20:23:09.983Z,6.87
2019-01-11T20:25:38.759Z,7.37
2019-01-11T20:28:07.226Z,6.03
2019-01-11T20:30:35.806Z,6.50
2019-01-11T20:33:04.440Z,7.10
2019-01-11T20:35:33.222Z,6.87
2019-01-11T20:38:01.899Z,6.83
2019-01-11T20:40:30.501Z,7.30
2019-01-11T20:42:59.165Z,8.10
2019-01-11T20:45:27.971Z,6.93
2019-01-11T20:47:56.675Z,7.60
2019-01-11T20:50:25.467Z,7.40
2019-01-11T20:52:54.037Z,6.10
2019-01-11T20:55:23.190Z,7.73
2019-01-11T20:57:51.957Z,7.37
2019-01-11T21:00:26.349Z,7.50
2019-01-11T21:02:54.905Z,7.50
2019-01-11T21:05:23.524Z,8.47
2019-01-11T21:07:52.285Z,7.53
2019-01-11T21:10:21.064Z,8.00
2019-01-11T21:12:49.570Z,8.23
2019-01-11T21:15:23.687Z,9.20
2019-01-11T21:17:52.363Z,8.07
2019-01-11T21:20:20.963Z,10.00
2019-01-11T21:22:49.592Z,12.73
2019-01-11T21:25:19.858Z,10.53
2019-01-11T21:27:48.622Z,9.27
2019-01-11T21:30:25.760Z,8.40
2019-01-11T21:32:54.270Z,9.53
2019-01-11T21:35:22.924Z,8.60
2019-01-11T21:37:51.694Z,8.63
2019-01-11T21:40:21.062Z,8.33
2019-01-11T21:42:49.952Z,8.27
2019-01-11T21:45:19.016Z,8.57
2019-01-11T21:47:47.988Z,7.80
2019-01-11T21:50:19.305Z,8.13
2019-01-11T21:52:47.957Z,8.83
2019-01-11T21:55:16.848Z,9.10
2019-01-11T21:57:45.650Z,9.97
2019-01-11T22:00:17.182Z,7.60
2019-01-11T22:02:46.324Z,7.07
2019-01-11T22:05:15.129Z,7.70
2019-01-11T22:07:43.781Z,7.43
2019-01-11T22:10:14.609Z,7.80
2019-01-11T22:12:43.007Z,6.70
2019-01-11T22:15:14.790Z,7.30
2019-01-11T22:17:43.212Z,8.23
2019-01-11T22:20:16.769Z,8.00
2019-01-11T22:22:46.077Z,8.60
2019-01-11T22:25:16.689Z,8.20
2019-01-11T22:27:46.315Z,7.53
2019-01-11T22:30:20.385Z,6.93
2019-01-11T22:32:48.799Z,7.97
2019-01-11T22:35:18.514Z,7.33
2019-01-11T22:37:47.220Z,8.83
2019-01-11T22:40:20.762Z,6.53
2019-01-11T22:42:50.736Z,7.77
2019-01-11T22:45:19.530Z,8.23
2019-01-11T22:47:48.017Z,8.20
2019-01-11T22:50:16.894Z,7.77
2019-01-11T22:52:45.347Z,8.43
2019-01-11T22:55:16.053Z,8.00
2019-01-11T22:57:44.967Z,7.00
2019-01-11T23:00:26.815Z,7.63
2019-01-11T23:02:58.731Z,7.07
2019-01-11T23:05:27.884Z,8.03
2019-01-11T23:07:57.429Z,6.30
2019-01-11T23:10:31.909Z,5.90
2019-01-11T23:13:00.652Z,7.00
2019-01-11T23:15:29.827Z,7.10
2019-01-11T23:17:58.558Z,6.87
2019-01-11T23:20:26.999Z,6.70
2019-01-11T23:22:55.721Z,7.00
2019-01-11T23:25:24.147Z,7.77
2019-01-11T23:27:52.645Z,6.93
2019-01-11T23:30:21.498Z,7.43
2019-01-11T23:32:50.201Z,7.10
2019-01-11T23:35:19.562Z,6.87
2019-01-11T23:37:48.303Z,8.53
2019-01-11T23:40:16.984Z,8.20
2019-01-11T23:42:45.606Z,9.03
2019-01-11T23:45:14.472Z,8.03
2019-01-11T23:47:43.144Z,7.70
2019-01-11T23:50:14.212Z,7.17
2019-01-11T23:52:43.003Z,6.93
2019-01-11T23:55:12.483Z,9.63
2019-01-11T23:57:41.049Z,8.60
